Time;durP1;ratioP1;P1;durP2;ratioP2;P2;SDS_P1;SDS_P2;PMS_P1;PMS_P2;Temp;Humidity;BMP_temperature;BMP_pressure;BME280_temperature;BME280_humidity;BME280_pressure;Samples;Min_cycle;Max_cycle;Signal;HPM_P1;HPM_P2
2022/04/11 00:02:16;;;;;;;8.32;3.30;;;1.10;99.90;;;;;;5044310;28;20513;-75
2022/04/11 00:04:42;;;;;;;15.45;3.00;;;1.10;99.90;;;;;;5027583;28;20037;-75
2022/04/11 00:07:07;;;;;;;7.18;2.78;;;1.00;99.90;;;;;;5053922;28;20041;-75
2022/04/11 00:09:33;;;;;;;5.57;2.78;;;1.00;99.90;;;;;;5053211;28;20132;-75
2022/04/11 00:11:58;;;;;;;6.53;2.47;;;1.00;99.90;;;;;;5047269;28;20065;-75
2022/04/11 00:14:24;;;;;;;5.70;2.40;;;1.00;99.90;;;;;;5052394;28;20086;-75
2022/04/11 00:16:50;;;;;;;9.32;2.55;;;0.90;99.90;;;;;;5042242;28;20033;-74
2022/04/11 00:19:15;;;;;;;6.60;2.75;;;0.90;99.90;;;;;;5054895;28;20086;-75
2022/04/11 00:21:41;;;;;;;4.60;2.20;;;0.90;99.90;;;;;;5042866;28;20395;-75
2022/04/11 00:24:07;;;;;;;10.02;3.22;;;0.80;99.90;;;;;;5031119;28;20045;-75
2022/04/11 00:26:33;;;;;;;10.63;4.72;;;0.90;99.90;;;;;;5043585;28;20547;-75
2022/04/11 00:28:59;;;;;;;7.43;3.80;;;0.80;99.90;;;;;;5036476;28;20057;-75
2022/04/11 00:31:24;;;;;;;9.15;3.65;;;0.80;99.90;;;;;;5050215;28;20090;-75
2022/04/11 00:33:50;;;;;;;7.63;4.03;;;0.70;99.90;;;;;;5049691;28;20037;-75
2022/04/11 00:36:15;;;;;;;6.85;3.53;;;0.70;99.90;;;;;;5050250;28;20488;-76
2022/04/11 00:38:41;;;;;;;6.70;3.22;;;0.70;99.90;;;;;;5032715;28;20515;-75
2022/04/11 00:41:06;;;;;;;8.18;3.22;;;0.60;99.90;;;;;;5055776;28;20480;-74
2022/04/11 00:43:37;;;;;;;6.63;3.40;;;0.50;99.90;;;;;;5054511;28;20042;-74
2022/04/11 00:46:03;;;;;;;14.05;3.85;;;0.50;99.90;;;;;;5074055;28;20039;-74
2022/04/11 00:48:30;;;;;;;12.63;3.95;;;0.50;99.90;;;;;;5047061;28;20036;-74
2022/04/11 00:51:17;;;;;;;9.77;3.97;;;0.50;99.90;;;;;;5048971;28;20033;-74
2022/04/11 00:53:45;;;;;;;10.18;4.78;;;0.40;99.90;;;;;;5049211;28;20132;-75
2022/04/11 00:56:13;;;;;;;7.93;4.57;;;0.50;99.90;;;;;;5049548;28;20049;-75
2022/04/11 00:58:39;;;;;;;8.63;2.90;;;0.50;99.90;;;;;;5050146;28;20068;-77
2022/04/11 01:01:05;;;;;;;6.47;3.20;;;0.50;99.90;;;;;;5032392;28;20068;-77
2022/04/11 01:03:32;;;;;;;13.20;4.32;;;0.30;99.90;;;;;;5034569;28;20480;-76
2022/04/11 01:05:58;;;;;;;7.05;3.70;;;0.20;99.90;;;;;;5058164;28;20103;-76
2022/04/11 01:08:24;;;;;;;10.55;4.50;;;0.10;99.90;;;;;;5051592;28;20131;-76
2022/04/11 01:10:51;;;;;;;7.30;3.83;;;0.10;99.90;;;;;;5048784;28;20268;-74
2022/04/11 01:13:17;;;;;;;9.40;4.53;;;0.10;99.90;;;;;;5047817;28;20175;-76
2022/04/11 01:15:53;;;;;;;11.02;4.68;;;0.20;99.90;;;;;;5038282;28;20148;-76
2022/04/11 01:18:18;;;;;;;7.95;4.25;;;0.20;99.90;;;;;;5053061;28;20052;-76
2022/04/11 01:20:44;;;;;;;9.75;4.35;;;0.30;99.90;;;;;;5044643;28;20047;-76
2022/04/11 01:23:09;;;;;;;9.57;4.00;;;0.30;99.90;;;;;;5063094;28;20399;-76
2022/04/11 01:25:35;;;;;;;9.05;3.60;;;0.40;99.90;;;;;;5049327;28;20035;-76
2022/04/11 01:28:01;;;;;;;5.93;3.15;;;0.50;99.90;;;;;;5032597;28;20154;-76
2022/04/11 01:30:26;;;;;;;8.48;3.30;;;0.40;99.90;;;;;;5057484;28;20048;-76
2022/04/11 01:32:52;;;;;;;6.63;3.72;;;0.40;99.90;;;;;;5057546;28;20130;-76
2022/04/11 01:35:27;;;;;;;8.90;3.53;;;0.40;99.90;;;;;;5048814;28;20471;-76
2022/04/11 01:37:54;;;;;;;13.10;3.70;;;0.40;99.90;;;;;;5031596;28;20060;-75
2022/04/11 01:40:20;;;;;;;6.95;3.75;;;0.40;99.90;;;;;;5048053;28;20055;-75
2022/04/11 01:42:46;;;;;;;7.57;3.92;;;0.50;99.90;;;;;;5033452;28;20037;-75
2022/04/11 01:45:13;;;;;;;7.28;3.70;;;0.50;99.90;;;;;;5048688;28;20099;-76
2022/04/11 01:47:40;;;;;;;7.00;3.75;;;0.60;99.90;;;;;;5032889;28;20116;-76
2022/04/11 01:50:09;;;;;;;9.18;3.97;;;0.60;99.90;;;;;;5051412;28;20037;-75
2022/04/11 01:52:35;;;;;;;9.43;3.60;;;0.60;99.90;;;;;;5048212;28;20119;-76
2022/04/11 01:55:04;;;;;;;6.03;3.40;;;0.70;99.90;;;;;;5048536;28;20120;-75
2022/04/11 01:57:30;;;;;;;5.72;3.05;;;0.60;99.90;;;;;;5034910;28;20037;-76
2022/04/11 01:59:56;;;;;;;6.43;3.40;;;0.60;99.90;;;;;;5047959;28;20432;-76
2022/04/11 02:02:22;;;;;;;7.72;3.30;;;0.70;99.90;;;;;;5045550;28;20142;-76
2022/04/11 02:04:47;;;;;;;9.30;3.10;;;0.70;99.90;;;;;;5046905;28;20279;-75
2022/04/11 02:07:13;;;;;;;6.78;3.08;;;0.60;99.90;;;;;;5043619;28;20033;-76
2022/04/11 02:09:38;;;;;;;7.13;3.10;;;0.70;99.90;;;;;;5044620;28;20480;-75
2022/04/11 02:12:04;;;;;;;7.25;3.20;;;0.60;99.90;;;;;;5027191;28;20037;-76
2022/04/11 02:14:30;;;;;;;7.15;3.38;;;0.70;99.90;;;;;;5043655;28;20049;-75
2022/04/11 02:16:56;;;;;;;6.15;3.33;;;0.70;99.90;;;;;;5046751;28;20037;-75
2022/04/11 02:19:22;;;;;;;6.45;3.38;;;0.80;99.90;;;;;;5063983;28;20041;-75
2022/04/11 02:21:48;;;;;;;6.22;3.70;;;0.80;99.90;;;;;;5029706;28;20061;-75
2022/04/11 02:24:13;;;;;;;7.72;3.35;;;0.80;99.90;;;;;;5044968;28;20033;-75
2022/04/11 02:26:39;;;;;;;8.75;3.60;;;0.80;99.90;;;;;;5046384;28;20460;-76
2022/04/11 02:29:05;;;;;;;7.38;3.20;;;0.70;99.90;;;;;;5038607;28;20476;-75
2022/04/11 02:31:30;;;;;;;7.90;3.17;;;0.70;99.90;;;;;;5058552;28;20483;-76
2022/04/11 02:33:56;;;;;;;9.23;3.67;;;0.70;99.90;;;;;;5047876;28;20131;-75
2022/04/11 02:36:21;;;;;;;6.88;3.50;;;0.80;99.90;;;;;;5048567;28;20044;-76
2022/04/11 02:38:47;;;;;;;12.00;4.43;;;0.80;99.90;;;;;;5057205;28;20049;-75
2022/04/11 02:41:12;;;;;;;8.13;4.05;;;0.70;99.90;;;;;;5050204;28;20041;-76
2022/04/11 02:43:38;;;;;;;8.90;3.80;;;0.80;99.90;;;;;;5044752;28;20045;-76
2022/04/11 02:46:03;;;;;;;11.82;3.97;;;0.80;99.90;;;;;;5058328;28;20089;-76
2022/04/11 02:48:29;;;;;;;7.63;3.90;;;0.80;99.90;;;;;;5041044;28;20037;-76
2022/04/11 02:50:54;;;;;;;9.13;4.05;;;0.80;99.90;;;;;;5058978;28;20064;-75
2022/04/11 02:53:20;;;;;;;6.95;3.80;;;0.80;99.90;;;;;;5054329;28;20488;-75
2022/04/11 02:55:45;;;;;;;8.55;3.58;;;0.70;99.90;;;;;;5050226;28;20396;-76
2022/04/11 02:58:11;;;;;;;7.65;3.55;;;0.70;99.90;;;;;;5027282;28;20041;-75
2022/04/11 03:00:36;;;;;;;7.60;3.03;;;0.60;99.90;;;;;;5033257;28;20076;-75
2022/04/11 03:03:03;;;;;;;9.82;3.55;;;0.60;99.90;;;;;;5045152;28;20120;-76
2022/04/11 03:05:29;;;;;;;4.60;2.90;;;0.70;99.90;;;;;;5055667;28;20048;-76
2022/04/11 03:07:55;;;;;;;7.65;3.13;;;0.50;99.90;;;;;;5032365;28;20391;-75
2022/04/11 03:10:20;;;;;;;5.55;2.88;;;0.40;99.90;;;;;;5034566;28;20441;-75
2022/04/11 03:12:46;;;;;;;4.78;3.17;;;0.40;99.90;;;;;;5048012;28;20040;-74
2022/04/11 03:15:11;;;;;;;5.70;3.30;;;0.30;99.90;;;;;;5048674;28;20213;-76
2022/04/11 03:17:37;;;;;;;8.63;3.05;;;0.20;99.90;;;;;;5041720;28;20123;-76
2022/04/11 03:20:03;;;;;;;5.78;3.08;;;0.30;99.90;;;;;;5047963;28;20087;-76
2022/04/11 03:22:29;;;;;;;6.72;3.65;;;0.20;99.90;;;;;;5046675;28;20072;-75
2022/04/11 03:24:54;;;;;;;8.25;3.28;;;0.20;99.90;;;;;;5048351;28;20040;-75
2022/04/11 03:27:20;;;;;;;7.53;3.80;;;0.30;99.90;;;;;;5054782;28;20044;-75
2022/04/11 03:29:45;;;;;;;6.60;3.42;;;0.30;99.90;;;;;;5044119;28;20041;-75
2022/04/11 03:32:11;;;;;;;7.07;3.03;;;0.20;99.90;;;;;;5059576;28;20036;-75
2022/04/11 03:34:38;;;;;;;7.07;3.45;;;0.30;99.90;;;;;;5037981;28;20048;-75
2022/04/11 03:37:04;;;;;;;6.05;3.38;;;0.30;99.90;;;;;;5026208;28;20075;-75
2022/04/11 03:39:29;;;;;;;6.75;3.50;;;0.30;99.90;;;;;;5063761;28;20065;-75
2022/04/11 03:41:55;;;;;;;8.82;4.18;;;0.40;99.90;;;;;;5056412;28;20392;-75
2022/04/11 03:44:20;;;;;;;10.85;4.85;;;0.40;99.90;;;;;;5032897;28;20084;-75
2022/04/11 03:46:46;;;;;;;12.15;6.03;;;0.50;99.90;;;;;;5058380;28;20037;-74
2022/04/11 03:49:12;;;;;;;11.98;5.28;;;0.40;99.90;;;;;;5054359;28;20369;-76
2022/04/11 03:51:37;;;;;;;11.38;5.32;;;0.50;99.90;;;;;;5053836;28;20445;-76
2022/04/11 03:54:03;;;;;;;8.65;4.63;;;0.50;99.90;;;;;;5043359;28;20048;-76
2022/04/11 03:56:28;;;;;;;8.93;4.70;;;0.50;99.90;;;;;;5051752;28;20037;-76
2022/04/11 03:58:54;;;;;;;10.13;4.78;;;0.60;99.90;;;;;;5024527;28;20132;-76
2022/04/11 04:01:20;;;;;;;10.45;3.97;;;0.60;99.90;;;;;;5054116;28;20036;-76
2022/04/11 04:03:45;;;;;;;6.40;3.80;;;0.60;99.90;;;;;;5051662;28;20098;-76
2022/04/11 04:06:11;;;;;;;8.75;3.83;;;0.60;99.90;;;;;;5034895;28;20064;-76
2022/04/11 04:08:37;;;;;;;7.30;4.18;;;0.70;99.90;;;;;;5051556;28;20087;-77
2022/04/11 04:11:03;;;;;;;7.32;4.15;;;0.70;99.90;;;;;;5056702;28;20029;-76
2022/04/11 04:13:28;;;;;;;10.68;4.43;;;0.80;99.90;;;;;;5059771;28;20053;-77
2022/04/11 04:15:54;;;;;;;8.88;4.40;;;0.80;99.90;;;;;;5043156;28;20036;-76
2022/04/11 04:18:19;;;;;;;9.23;4.15;;;0.80;99.90;;;;;;5041140;28;20029;-76
2022/04/11 04:20:45;;;;;;;10.07;4.63;;;0.80;99.90;;;;;;5061019;28;20033;-76
2022/04/11 04:23:10;;;;;;;7.95;4.22;;;0.80;99.90;;;;;;5060438;28;20083;-76
2022/04/11 04:25:36;;;;;;;9.30;4.75;;;0.90;99.90;;;;;;5056300;28;20120;-76
2022/04/11 04:28:03;;;;;;;11.48;5.00;;;0.90;99.90;;;;;;5054191;28;20083;-76
2022/04/11 04:30:29;;;;;;;10.50;5.20;;;1.00;99.90;;;;;;5059927;28;20048;-76
2022/04/11 04:32:58;;;;;;;10.15;5.05;;;1.00;99.90;;;;;;5051171;28;20036;-76
2022/04/11 04:35:24;;;;;;;11.35;5.55;;;1.00;99.90;;;;;;5037720;28;20045;-76
2022/04/11 04:37:50;;;;;;;10.82;5.80;;;1.10;99.90;;;;;;5050472;28;20396;-76
2022/04/11 04:40:15;;;;;;;12.68;5.78;;;1.00;99.90;;;;;;5033384;28;20040;-76
2022/04/11 04:42:41;;;;;;;12.60;5.80;;;1.10;99.90;;;;;;5060007;28;20026;-76
2022/04/11 04:45:06;;;;;;;14.80;6.70;;;1.00;99.90;;;;;;5050789;28;20037;-76
2022/04/11 04:47:32;;;;;;;9.13;5.68;;;1.20;99.90;;;;;;5049507;28;20040;-76
2022/04/11 04:49:58;;;;;;;11.75;5.95;;;1.20;99.90;;;;;;5045480;28;20550;-76
2022/04/11 04:52:23;;;;;;;11.93;5.97;;;1.10;99.90;;;;;;5053607;28;20037;-76
2022/04/11 04:54:49;;;;;;;12.13;5.68;;;1.20;99.90;;;;;;5049945;28;20037;-75
2022/04/11 04:57:14;;;;;;;13.95;5.93;;;1.20;99.90;;;;;;5048533;28;20089;-76
2022/04/11 04:59:40;;;;;;;9.90;5.00;;;1.30;99.90;;;;;;5057816;28;20131;-76
2022/04/11 05:02:06;;;;;;;11.63;5.68;;;1.20;99.90;;;;;;5038543;28;20084;-75
2022/04/11 05:04:31;;;;;;;12.02;6.40;;;1.30;99.90;;;;;;5060773;28;20041;-75
2022/04/11 05:06:57;;;;;;;12.43;6.57;;;1.40;99.90;;;;;;5033540;28;20033;-75
2022/04/11 05:09:22;;;;;;;13.15;7.18;;;1.40;99.90;;;;;;5064678;28;20484;-75
2022/04/11 05:11:48;;;;;;;13.15;6.63;;;1.30;99.90;;;;;;5053814;28;20519;-75
2022/04/11 05:14:13;;;;;;;15.20;7.53;;;1.40;99.90;;;;;;5048189;28;20033;-76
2022/04/11 05:16:39;;;;;;;16.02;7.38;;;1.40;99.90;;;;;;5049610;28;20091;-76
2022/04/11 05:19:05;;;;;;;15.10;7.93;;;1.40;99.90;;;;;;5033584;28;20033;-76
2022/04/11 05:21:31;;;;;;;14.48;7.95;;;1.50;99.90;;;;;;5032242;28;20032;-76
2022/04/11 05:23:57;;;;;;;17.02;8.13;;;1.40;99.90;;;;;;5050724;28;20037;-77
2022/04/11 05:26:23;;;;;;;19.48;8.80;;;1.40;99.90;;;;;;5049088;28;20079;-77
2022/04/11 05:28:49;;;;;;;15.65;8.35;;;1.50;99.90;;;;;;5050461;28;20447;-75
2022/04/11 05:31:15;;;;;;;16.30;8.50;;;1.60;99.90;;;;;;5045425;28;20048;-76
2022/04/11 05:33:41;;;;;;;16.40;7.80;;;1.50;99.90;;;;;;5034374;28;20538;-76
2022/04/11 05:36:07;;;;;;;18.30;9.00;;;1.50;99.90;;;;;;5032575;28;20119;-76
2022/04/11 05:38:32;;;;;;;17.90;9.00;;;1.60;99.90;;;;;;5065981;28;20403;-76
2022/04/11 05:40:58;;;;;;;16.88;8.45;;;1.60;99.90;;;;;;5061240;28;20491;-75
2022/04/11 05:43:23;;;;;;;19.08;8.88;;;1.70;99.90;;;;;;5034067;28;20534;-76
2022/04/11 05:45:49;;;;;;;21.42;8.98;;;1.70;99.90;;;;;;5063441;28;20029;-76
2022/04/11 05:48:14;;;;;;;23.63;9.77;;;1.80;99.90;;;;;;5050654;28;20384;-76
2022/04/11 05:50:40;;;;;;;16.88;8.20;;;1.90;99.90;;;;;;5033732;28;20026;-76
2022/04/11 05:53:06;;;;;;;15.80;7.78;;;1.90;99.90;;;;;;5063265;28;20036;-76
2022/04/11 05:55:32;;;;;;;16.77;8.75;;;1.90;99.90;;;;;;5031384;28;20033;-77
2022/04/11 05:57:57;;;;;;;22.38;9.20;;;2.00;99.90;;;;;;5050458;28;20136;-76
2022/04/11 06:00:23;;;;;;;15.88;8.95;;;2.00;99.90;;;;;;5049110;28;20051;-76
2022/04/11 06:02:50;;;;;;;18.02;9.02;;;2.10;99.90;;;;;;5032364;28;20037;-75
2022/04/11 06:05:15;;;;;;;20.88;9.68;;;2.10;99.90;;;;;;5050540;28;20041;-76
2022/04/11 06:07:41;;;;;;;18.38;9.35;;;2.10;99.90;;;;;;5029779;28;20040;-76
2022/04/11 06:10:08;;;;;;;23.50;9.63;;;2.10;99.90;;;;;;5044781;28;21194;-75
2022/04/11 06:12:34;;;;;;;20.58;9.35;;;2.20;99.90;;;;;;5048901;28;20041;-75
2022/04/11 06:15:00;;;;;;;20.33;10.20;;;2.30;99.90;;;;;;5045008;28;20080;-76
2022/04/11 06:17:26;;;;;;;20.27;9.95;;;2.30;99.90;;;;;;5050100;28;20088;-76
2022/04/11 06:19:53;;;;;;;17.83;9.70;;;2.50;99.90;;;;;;5046746;28;20037;-76
2022/04/11 06:22:19;;;;;;;17.42;9.50;;;2.50;99.90;;;;;;5038244;28;20037;-76
2022/04/11 06:24:48;;;;;;;17.63;9.55;;;2.70;99.90;;;;;;5050054;28;20430;-76
2022/04/11 06:27:14;;;;;;;19.52;10.18;;;2.80;99.90;;;;;;5049285;28;20033;-75
2022/04/11 06:29:40;;;;;;;20.95;9.75;;;2.80;99.90;;;;;;5050455;28;20408;-76
2022/04/11 06:32:06;;;;;;;22.02;9.93;;;2.90;99.90;;;;;;5062753;28;20045;-75
2022/04/11 06:34:32;;;;;;;21.35;10.10;;;3.00;99.90;;;;;;5029865;28;20040;-76
2022/04/11 06:36:57;;;;;;;20.13;9.90;;;3.10;99.90;;;;;;5045545;28;20519;-76
2022/04/11 06:39:23;;;;;;;22.45;9.82;;;3.30;99.90;;;;;;5055711;28;20064;-76
2022/04/11 06:41:49;;;;;;;21.67;9.32;;;3.30;99.90;;;;;;5046998;28;20036;-76
2022/04/11 06:44:15;;;;;;;19.13;10.10;;;3.40;99.90;;;;;;5049905;28;20167;-75
2022/04/11 06:46:41;;;;;;;20.48;9.90;;;3.60;99.90;;;;;;5050090;28;20037;-76
2022/04/11 06:49:06;;;;;;;23.00;8.82;;;3.70;99.90;;;;;;5048163;28;20045;-75
2022/04/11 06:51:32;;;;;;;19.15;9.15;;;3.90;99.90;;;;;;5046337;28;20406;-75
2022/04/11 06:53:57;;;;;;;20.40;9.68;;;4.00;99.90;;;;;;5049808;28;20053;-76
2022/04/11 06:56:23;;;;;;;19.70;8.98;;;4.10;99.90;;;;;;5048641;28;20053;-76
2022/04/11 06:58:48;;;;;;;20.35;9.65;;;4.20;99.90;;;;;;5049260;28;20076;-75
2022/04/11 07:01:14;;;;;;;21.83;9.77;;;4.40;99.90;;;;;;5059385;28;20072;-76
2022/04/11 07:03:39;;;;;;;21.73;9.85;;;4.50;99.90;;;;;;5030808;28;20123;-76
2022/04/11 07:06:05;;;;;;;20.33;10.10;;;4.70;99.90;;;;;;5049679;28;20415;-76
2022/04/11 07:08:30;;;;;;;20.92;9.98;;;4.80;99.90;;;;;;5033072;28;20043;-75
2022/04/11 07:11:00;;;;;;;21.77;9.85;;;4.90;99.90;;;;;;5048920;28;20068;-75
2022/04/11 07:13:26;;;;;;;21.30;10.32;;;5.10;99.90;;;;;;5049719;28;20051;-75
2022/04/11 07:15:52;;;;;;;23.20;10.43;;;5.20;99.90;;;;;;5049449;28;20064;-74
2022/04/11 07:18:19;;;;;;;22.63;9.95;;;5.30;99.90;;;;;;5032672;28;20033;-74
2022/04/11 07:20:45;;;;;;;17.88;10.40;;;5.40;99.90;;;;;;5027680;28;20080;-75
2022/04/11 07:23:11;;;;;;;24.45;10.80;;;5.50;99.90;;;;;;5049240;28;20407;-75
2022/04/11 07:25:37;;;;;;;26.13;10.48;;;5.70;99.90;;;;;;5049554;28;20123;-74
2022/04/11 07:28:03;;;;;;;19.83;10.60;;;5.80;99.90;;;;;;5033052;28;20040;-75
2022/04/11 07:30:29;;;;;;;21.13;10.55;;;5.90;99.90;;;;;;5048320;28;20077;-74
2022/04/11 07:32:54;;;;;;;24.85;10.90;;;6.10;99.90;;;;;;5048783;28;20455;-74
2022/04/11 07:35:20;;;;;;;23.17;10.68;;;6.10;99.90;;;;;;5049216;28;20495;-74
2022/04/11 07:37:45;;;;;;;24.55;11.65;;;6.30;99.90;;;;;;5048151;28;20047;-74
2022/04/11 07:40:12;;;;;;;22.67;10.95;;;6.40;99.90;;;;;;5031265;28;20079;-74
2022/04/11 07:42:37;;;;;;;26.17;11.75;;;6.50;99.90;;;;;;5048828;28;20037;-74
2022/04/11 07:45:03;;;;;;;28.13;11.27;;;6.70;99.90;;;;;;5036892;28;20164;-75
2022/04/11 07:47:29;;;;;;;24.10;12.05;;;6.80;99.90;;;;;;5029236;28;20446;-75
2022/04/11 07:49:54;;;;;;;25.52;12.07;;;7.00;99.90;;;;;;5028386;28;20041;-74
2022/04/11 07:52:21;;;;;;;24.17;11.73;;;7.10;99.90;;;;;;5018301;28;20082;-75
2022/04/11 07:54:47;;;;;;;23.83;11.93;;;7.20;99.90;;;;;;5032569;28;20431;-75
2022/04/11 07:57:13;;;;;;;24.00;12.23;;;7.40;99.90;;;;;;5047630;28;20072;-74
2022/04/11 07:59:39;;;;;;;26.70;12.10;;;7.50;99.90;;;;;;5048792;28;20049;-74
2022/04/11 08:02:05;;;;;;;22.65;11.48;;;7.60;99.90;;;;;;5032246;28;20036;-74
2022/04/11 08:04:32;;;;;;;21.20;11.27;;;7.70;99.90;;;;;;5048511;28;20044;-74
2022/04/11 08:06:58;;;;;;;27.77;11.93;;;7.80;99.90;;;;;;5048472;28;20049;-74
2022/04/11 08:09:23;;;;;;;25.58;12.63;;;7.90;99.90;;;;;;5048367;28;20091;-74
2022/04/11 08:11:49;;;;;;;26.90;12.50;;;8.10;99.90;;;;;;5048764;28;20037;-74
2022/04/11 08:14:16;;;;;;;26.77;11.82;;;8.10;99.90;;;;;;5048814;28;20492;-74
2022/04/11 08:16:42;;;;;;;27.95;13.10;;;8.30;99.90;;;;;;5046084;28;20084;-75
2022/04/11 08:19:07;;;;;;;24.23;12.35;;;8.50;99.90;;;;;;5044417;28;20535;-75
2022/04/11 08:21:33;;;;;;;23.77;12.80;;;8.60;99.90;;;;;;5032291;28;20492;-74
2022/04/11 08:23:58;;;;;;;25.92;14.05;;;8.80;99.90;;;;;;5047369;28;20037;-76
2022/04/11 08:26:24;;;;;;;25.05;13.90;;;8.90;99.90;;;;;;5047512;28;20041;-75
2022/04/11 08:28:49;;;;;;;28.42;14.35;;;9.00;99.90;;;;;;5031543;28;20041;-74
2022/04/11 08:31:15;;;;;;;27.00;14.65;;;9.10;99.90;;;;;;5048421;28;20047;-74
2022/04/11 08:33:40;;;;;;;27.42;14.85;;;9.20;99.90;;;;;;5045357;28;20041;-75
2022/04/11 08:36:06;;;;;;;29.13;15.50;;;9.20;99.90;;;;;;5048019;28;20036;-74
2022/04/11 08:38:31;;;;;;;28.77;14.90;;;9.30;99.90;;;;;;5048665;28;20094;-75
2022/04/11 08:41:02;;;;;;;31.75;14.85;;;9.50;99.90;;;;;;5045450;28;20107;-75
2022/04/11 08:43:27;;;;;;;33.15;15.68;;;9.70;99.90;;;;;;5038958;28;20538;-75
2022/04/11 08:45:54;;;;;;;29.33;15.77;;;9.80;99.90;;;;;;5029307;28;20060;-74
2022/04/11 08:48:23;;;;;;;29.05;15.88;;;9.80;99.90;;;;;;5048490;28;20492;-75
2022/04/11 08:50:49;;;;;;;30.02;16.15;;;9.90;99.90;;;;;;5048127;28;20029;-74
2022/04/11 08:53:20;;;;;;;34.60;15.43;;;9.90;99.90;;;;;;5051175;28;20090;-74
2022/04/11 08:55:47;;;;;;;30.50;15.82;;;9.90;99.90;;;;;;5051928;28;20084;-74
2022/04/11 08:58:12;;;;;;;29.40;14.90;;;9.90;99.90;;;;;;5034105;28;20045;-75
2022/04/11 09:00:38;;;;;;;28.42;15.52;;;10.00;99.90;;;;;;5034870;28;20385;-75
2022/04/11 09:03:05;;;;;;;28.90;15.40;;;10.00;99.90;;;;;;5045937;28;20039;-72
2022/04/11 09:05:31;;;;;;;33.10;15.68;;;10.10;99.90;;;;;;5051570;28;20102;-74
2022/04/11 09:07:59;;;;;;;28.17;15.45;;;10.00;99.90;;;;;;5048947;28;20125;-74
2022/04/11 09:10:32;;;;;;;28.42;15.25;;;10.10;99.90;;;;;;5050584;28;20040;-74
2022/04/11 09:12:59;;;;;;;31.80;15.68;;;10.10;99.90;;;;;;5050994;28;20337;-73
2022/04/11 09:15:26;;;;;;;31.15;15.63;;;10.10;99.90;;;;;;5045087;28;20507;-74
2022/04/11 09:17:55;;;;;;;30.85;14.93;;;10.10;99.90;;;;;;5051907;28;20083;-73
2022/04/11 09:20:25;;;;;;;30.40;14.98;;;10.10;99.90;;;;;;5045270;28;20063;-73
2022/04/11 09:22:51;;;;;;;30.55;15.52;;;10.20;99.90;;;;;;5047277;28;20068;-76
2022/04/11 09:25:19;;;;;;;29.20;15.02;;;10.20;99.90;;;;;;5037710;28;20033;-75
2022/04/11 09:27:46;;;;;;;24.02;15.13;;;10.30;99.90;;;;;;5048863;28;20037;-74
2022/04/11 09:30:24;;;;;;;28.77;14.25;;;10.40;99.90;;;;;;5034798;28;20037;-74
2022/04/11 09:32:59;;;;;;;26.15;14.07;;;10.50;99.90;;;;;;5046453;28;20682;-72
2022/04/11 09:35:30;;;;;;;28.88;14.13;;;10.60;99.90;;;;;;5050100;28;20048;-73
2022/04/11 09:38:16;;;;;;;29.55;14.55;;;10.60;99.90;;;;;;5060512;28;20040;-73
2022/04/11 09:40:48;;;;;;;29.20;14.40;;;10.60;99.90;;;;;;5051078;28;20032;-75
2022/04/11 09:43:15;;;;;;;29.50;13.68;;;10.70;99.90;;;;;;5045805;28;20041;-76
2022/04/11 09:45:49;;;;;;;24.98;13.55;;;10.70;99.90;;;;;;5048440;28;20044;-73
2022/04/11 09:48:23;;;;;;;26.83;13.95;;;10.90;99.90;;;;;;5051589;28;20040;-75
2022/04/11 09:50:50;;;;;;;22.65;13.05;;;10.90;99.90;;;;;;5041907;28;20437;-75
2022/04/11 09:53:18;;;;;;;30.02;13.63;;;11.00;99.90;;;;;;5044498;28;20064;-73
2022/04/11 09:55:47;;;;;;;28.55;14.40;;;11.00;99.90;;;;;;5050257;28;20048;-75
2022/04/11 09:58:13;;;;;;;25.40;13.80;;;11.20;99.90;;;;;;5048917;28;20037;-75
2022/04/11 10:00:41;;;;;;;25.58;13.27;;;11.30;99.90;;;;;;5033156;28;20420;-75
2022/04/11 10:03:07;;;;;;;26.40;12.88;;;11.50;99.90;;;;;;5050497;28;20591;-75
2022/04/11 10:05:34;;;;;;;26.25;13.38;;;11.50;99.90;;;;;;5033310;28;20124;-73
2022/04/11 10:08:02;;;;;;;28.27;14.10;;;11.60;99.90;;;;;;5051768;28;20037;-78
2022/04/11 10:10:28;;;;;;;27.98;14.35;;;11.70;99.90;;;;;;5048403;28;20083;-76
2022/04/11 10:12:55;;;;;;;27.52;14.65;;;11.80;99.90;;;;;;5049459;28;20072;-72
2022/04/11 10:15:21;;;;;;;24.60;13.07;;;11.90;99.90;;;;;;5049642;28;20114;-73
2022/04/11 10:17:51;;;;;;;26.38;13.50;;;11.90;99.90;;;;;;5032241;28;20509;-78
2022/04/11 10:20:31;;;;;;;25.73;13.52;;;12.00;99.90;;;;;;5048669;28;20044;-82
2022/04/11 10:23:24;;;;;;;27.73;12.95;;;12.00;99.90;;;;;;5049377;28;20410;-75
2022/04/11 10:25:51;;;;;;;26.45;13.10;;;12.00;99.90;;;;;;5013195;28;20482;-78
2022/04/11 10:28:25;;;;;;;29.20;14.02;;;12.10;99.90;;;;;;5030994;28;20041;-80
2022/04/11 10:31:12;;;;;;;26.77;12.43;;;12.10;99.90;;;;;;5030675;28;20041;-74
2022/04/11 10:33:50;;;;;;;24.27;13.85;;;12.30;99.90;;;;;;5031347;28;20567;-75
2022/04/11 10:36:32;;;;;;;26.38;13.93;;;12.40;99.90;;;;;;5014352;28;20084;-77
2022/04/11 10:39:16;;;;;;;28.25;13.23;;;12.40;73.10;;;;;;5051602;28;20044;-75
2022/04/11 10:42:05;;;;;;;29.58;14.73;;;12.50;99.90;;;;;;5051275;28;20047;-76
2022/04/11 10:44:37;;;;;;;25.88;11.80;;;12.60;99.90;;;;;;5046514;28;20214;-75
2022/04/11 10:47:11;;;;;;;26.92;11.95;;;12.80;99.90;;;;;;5044567;28;20037;-78
2022/04/11 10:49:49;;;;;;;24.27;12.52;;;12.90;99.90;;;;;;5050180;28;20551;-76
2022/04/11 10:52:31;;;;;;;21.52;12.02;;;13.10;99.90;;;;;;5050014;28;20040;-78
2022/04/11 10:55:07;;;;;;;26.25;13.02;;;13.30;99.90;;;;;;5049446;28;20094;-76
2022/04/11 10:57:34;;;;;;;25.98;12.68;;;13.40;99.90;;;;;;5051219;28;20120;-76
2022/04/11 11:00:13;;;;;;;26.70;14.45;;;13.50;99.90;;;;;;5047167;28;20037;-74
2022/04/11 11:02:48;;;;;;;26.02;14.55;;;13.70;99.90;;;;;;5050662;28;20041;-78
2022/04/11 11:05:35;;;;;;;30.63;14.48;;;13.70;99.90;;;;;;5033946;28;20033;-76
2022/04/11 11:08:10;;;;;;;28.48;14.80;;;13.80;99.90;;;;;;5049683;28;20094;-76
2022/04/11 11:10:47;;;;;;;27.20;14.55;;;13.90;99.90;;;;;;5031747;28;20037;-74
2022/04/11 11:13:39;;;;;;;27.02;16.90;;;13.90;99.90;;;;;;5048170;28;20651;-75
2022/04/11 11:16:08;;;;;;;33.13;16.15;;;13.80;98.30;;;;;;5048041;28;20066;-77
2022/04/11 11:18:49;;;;;;;28.40;16.63;;;13.70;99.90;;;;;;5048830;28;20492;-79
2022/04/11 11:21:44;;;;;;;27.27;16.17;;;13.80;99.90;;;;;;5048862;28;20040;-76
2022/04/11 11:24:12;;;;;;;29.33;15.68;;;13.90;99.90;;;;;;5049785;28;20041;-75
2022/04/11 11:26:48;;;;;;;29.23;17.10;;;14.00;99.90;;;;;;5047239;28;20419;-77
2022/04/11 11:29:24;;;;;;;26.08;16.40;;;14.00;92.00;;;;;;5049666;28;20040;-74
2022/04/11 11:31:51;;;;;;;28.58;16.05;;;14.10;92.30;;;;;;5049989;28;20086;-75
2022/04/11 11:34:21;;;;;;;29.73;17.00;;;14.10;95.00;;;;;;5049428;28;20041;-77
2022/04/11 11:36:48;;;;;;;29.63;16.65;;;14.20;99.90;;;;;;5049694;28;20072;-75
2022/04/11 11:39:19;;;;;;;30.10;16.95;;;14.20;99.90;;;;;;5049156;28;20060;-78
2022/04/11 11:41:53;;;;;;;28.17;16.37;;;14.30;99.90;;;;;;5050496;28;20135;-75
2022/04/11 11:44:19;;;;;;;26.85;16.10;;;14.40;98.70;;;;;;5049677;28;20040;-73
2022/04/11 11:46:55;;;;;;;28.90;16.63;;;14.40;99.90;;;;;;5048948;28;20041;-75
2022/04/11 11:49:21;;;;;;;27.48;16.20;;;14.50;96.40;;;;;;5029381;28;20037;-78
2022/04/11 11:51:47;;;;;;;32.75;18.05;;;14.60;99.90;;;;;;5039425;28;20036;-77
2022/04/11 11:54:14;;;;;;;29.42;17.55;;;14.50;60.70;;;;;;5047823;28;20098;-77
2022/04/11 11:56:43;;;;;;;27.13;17.67;;;14.50;89.30;;;;;;5049256;28;20157;-74
2022/04/11 11:59:09;;;;;;;27.80;16.40;;;14.40;92.50;;;;;;5048758;28;20052;-74
2022/04/11 12:01:35;;;;;;;30.55;17.35;;;14.40;80.40;;;;;;5031730;28;20430;-78
2022/04/11 12:04:19;;;;;;;27.50;16.98;;;14.40;96.20;;;;;;5049117;28;20057;-77
2022/04/11 12:06:45;;;;;;;30.95;16.60;;;14.50;97.10;;;;;;5049548;28;20448;-74
2022/04/11 12:09:11;;;;;;;25.80;17.17;;;14.50;98.70;;;;;;5065661;28;20488;-74
2022/04/11 12:11:37;;;;;;;31.50;18.20;;;14.60;98.10;;;;;;5049596;28;20045;-75
2022/04/11 12:14:08;;;;;;;36.65;18.02;;;14.60;90.40;;;;;;5049461;28;20059;-75
2022/04/11 12:16:36;;;;;;;31.08;17.17;;;14.60;85.90;;;;;;5049406;28;20416;-77
2022/04/11 12:19:04;;;;;;;28.63;16.52;;;14.60;93.30;;;;;;5043522;28;20048;-75
2022/04/11 12:21:35;;;;;;;30.70;16.92;;;14.70;90.10;;;;;;5032888;28;20052;-75
2022/04/11 12:24:02;;;;;;;27.85;16.33;;;14.70;71.10;;;;;;5047379;28;20045;-75
2022/04/11 12:26:39;;;;;;;28.77;16.50;;;14.60;80.10;;;;;;5050752;28;20037;-75
2022/04/11 12:29:15;;;;;;;30.83;17.35;;;14.50;89.20;;;;;;5052436;28;20480;-74
2022/04/11 12:31:57;;;;;;;31.70;18.55;;;14.50;77.50;;;;;;5035145;28;20041;-75
2022/04/11 12:34:36;;;;;;;33.35;18.58;;;14.50;90.90;;;;;;5052879;28;20048;-75
2022/04/11 12:37:05;;;;;;;26.13;16.73;;;14.50;90.20;;;;;;5048732;28;20041;-77
2022/04/11 12:39:32;;;;;;;34.70;17.75;;;14.50;90.00;;;;;;5051113;28;20044;-78
2022/04/11 12:41:58;;;;;;;29.60;17.30;;;14.40;74.00;;;;;;5035503;28;20496;-73
2022/04/11 12:44:33;;;;;;;33.33;17.70;;;14.40;78.50;;;;;;5036420;28;20124;-76
2022/04/11 12:46:59;;;;;;;34.63;18.50;;;14.40;72.70;;;;;;5065283;28;20064;-82